Lafayette, North Carolina
Current Conditions -  °F | °C
As of 7:53 AM on Thursday 30 Oct 2014 (Local Time) from KFAY Reporting Station
Clear Clear  
Wind Chill: 53°   Ceiling: Unl
Heat Index: 53°   Visibility: 10mi
Dew Point: 49°   Wind: 7mph
Humidity: 86%   Direction: 30°NNE
Pressure: 30.02"   Gusts: NA
Location:  35.0256°N, 79.0002°W
Report Text: KFAY 301153Z AUTO 03006KT 10SM CLR 12/09 A3002 RMK AO2 SLP160 T01170094 10161 20117 53016
Loading
Personal Weather Stations






























Interactive Weather Map
Tropical Storm Tracking
New forecast layout! Learn more

10-Day Weather Forecast

Advertisements
Track Severe Weather on mobile